createdAt,value
2023-04-12T00:00:02.320Z,0
2023-04-12T00:01:02.514Z,0
2023-04-12T00:02:03.389Z,0
2023-04-12T00:03:04.877Z,0
2023-04-12T00:04:05.249Z,0
2023-04-12T00:05:05.486Z,0
2023-04-12T00:06:06.026Z,0
2023-04-12T00:07:06.954Z,0
2023-04-12T00:08:07.810Z,0
2023-04-12T00:09:08.891Z,0
2023-04-12T00:10:09.189Z,0
2023-04-12T00:11:10.601Z,0
2023-04-12T00:12:11.092Z,0
2023-04-12T00:13:11.559Z,0
2023-04-12T00:14:12.325Z,0
2023-04-12T00:15:13.552Z,0
2023-04-12T00:16:13.459Z,0
2023-04-12T00:17:13.795Z,0
2023-04-12T00:18:15.158Z,0
2023-04-12T00:19:14.646Z,0
2023-04-12T00:20:15.564Z,0
2023-04-12T00:21:15.940Z,0
2023-04-12T00:22:16.874Z,0
2023-04-12T00:23:17.586Z,0
2023-04-12T00:24:18.471Z,0
2023-04-12T00:25:19.160Z,0
2023-04-12T00:26:19.773Z,0
2023-04-12T00:27:20.713Z,0
2023-04-12T00:28:20.419Z,0
2023-04-12T00:29:21.362Z,0
2023-04-12T00:30:20.897Z,0
2023-04-12T00:31:21.515Z,0
2023-04-12T00:32:22.174Z,0
2023-04-12T00:33:23.001Z,0
2023-04-12T00:34:23.510Z,0
2023-04-12T00:35:23.849Z,0
2023-04-12T00:36:24.775Z,0
2023-04-12T00:37:25.603Z,0
2023-04-12T00:38:26.272Z,0
2023-04-12T00:39:26.759Z,0
2023-04-12T00:40:27.336Z,0
2023-04-12T00:41:27.569Z,0
2023-04-12T00:42:28.036Z,0
2023-04-12T00:43:28.563Z,0
2023-04-12T00:44:29.584Z,0
2023-04-12T00:45:29.028Z,0
2023-04-12T00:46:30.161Z,0
2023-04-12T00:47:30.233Z,0
2023-04-12T00:48:30.968Z,0
2023-04-12T00:49:31.477Z,0
2023-04-12T00:50:31.993Z,0
2023-04-12T00:51:32.223Z,0
2023-04-12T00:52:32.783Z,0
2023-04-12T00:53:33.333Z,0
2023-04-12T00:54:33.805Z,0
2023-04-12T00:55:34.789Z,0
2023-04-12T00:56:35.501Z,0
2023-04-12T00:57:35.834Z,0
2023-04-12T00:58:36.741Z,0
2023-04-12T00:59:37.217Z,0
2023-04-12T01:00:37.575Z,0
2023-04-12T01:01:38.417Z,0
2023-04-12T01:02:39.945Z,0
2023-04-12T01:03:41.040Z,0
2023-04-12T01:04:40.569Z,0
2023-04-12T01:05:41.286Z,0
2023-04-12T01:06:41.808Z,0
2023-04-12T01:07:42.182Z,0
2023-04-12T01:08:42.493Z,0
2023-04-12T01:09:43.603Z,0
2023-04-12T01:10:43.502Z,0
2023-04-12T01:11:43.759Z,0
2023-04-12T01:12:44.489Z,0
2023-04-12T01:13:44.824Z,0
2023-04-12T01:14:45.518Z,0
2023-04-12T01:15:46.247Z,0
2023-04-12T01:16:47.286Z,0
2023-04-12T01:17:47.259Z,0
2023-04-12T01:18:47.955Z,0
2023-04-12T01:19:48.804Z,0
2023-04-12T01:20:49.770Z,0
2023-04-12T01:21:50.162Z,0
2023-04-12T01:22:50.682Z,0
2023-04-12T01:23:51.231Z,0
2023-04-12T01:24:51.932Z,0
2023-04-12T01:25:52.488Z,0
2023-04-12T01:26:53.288Z,0
2023-04-12T01:27:53.989Z,0
2023-04-12T01:28:54.966Z,0
2023-04-12T01:29:55.838Z,0
2023-04-12T01:30:56.315Z,0
2023-04-12T01:31:58.146Z,0
2023-04-12T01:32:58.317Z,0
2023-04-12T01:33:57.868Z,0
2023-04-12T01:34:58.845Z,0
2023-04-12T01:36:00.125Z,0
2023-04-12T01:37:00.104Z,0
2023-04-12T01:38:00.435Z,0
2023-04-12T01:39:01.517Z,0
2023-04-12T01:40:02.618Z,0
2023-04-12T01:41:02.317Z,0
2023-04-12T01:42:02.846Z,0
2023-04-12T01:43:02.936Z,0
2023-04-12T01:44:04.620Z,0
2023-04-12T01:45:05.378Z,0
2023-04-12T01:46:06.534Z,0
2023-04-12T01:47:06.261Z,0
2023-04-12T01:48:07.096Z,0
2023-04-12T01:49:08.052Z,0
2023-04-12T01:50:08.962Z,0
2023-04-12T01:51:08.883Z,0
2023-04-12T01:52:09.525Z,0
2023-04-12T01:53:10.129Z,0
2023-04-12T01:54:10.999Z,0
2023-04-12T01:55:11.294Z,0
2023-04-12T01:56:11.568Z,0
2023-04-12T01:57:12.296Z,0
2023-04-12T01:58:12.700Z,0
2023-04-12T01:59:13.237Z,0
2023-04-12T02:00:13.739Z,0
2023-04-12T02:01:14.556Z,0
2023-04-12T02:02:15.786Z,0
2023-04-12T02:03:16.966Z,0
2023-04-12T02:04:17.376Z,0
2023-04-12T02:05:16.533Z,0
2023-04-12T02:06:17.046Z,0
2023-04-12T02:07:17.830Z,0
2023-04-12T02:08:18.583Z,0
2023-04-12T02:09:19.321Z,0
2023-04-12T02:10:19.832Z,0
2023-04-12T02:11:20.543Z,0
2023-04-12T02:12:21.112Z,0
2023-04-12T02:13:21.387Z,0
2023-04-12T02:14:22.302Z,0
2023-04-12T02:15:22.805Z,0
2023-04-12T02:16:23.274Z,0
2023-04-12T02:17:24.050Z,0
2023-04-12T02:18:25.079Z,0
2023-04-12T02:19:25.814Z,0
2023-04-12T02:20:26.512Z,0
2023-04-12T02:21:26.843Z,0
2023-04-12T02:22:27.283Z,0
2023-04-12T02:23:27.993Z,0
2023-04-12T02:24:28.117Z,0
2023-04-12T02:25:28.990Z,0
2023-04-12T02:26:29.662Z,0
2023-04-12T02:27:30.171Z,0
2023-04-12T02:28:30.838Z,0
2023-04-12T02:29:31.746Z,0
2023-04-12T02:30:32.269Z,0
2023-04-12T02:31:33.220Z,0
2023-04-12T02:32:33.713Z,0
2023-04-12T02:33:33.651Z,0
2023-04-12T02:34:34.454Z,0
2023-04-12T02:35:34.944Z,0
2023-04-12T02:36:35.952Z,0
2023-04-12T02:37:36.629Z,0
2023-04-12T02:38:37.222Z,0
2023-04-12T02:39:37.590Z,0
2023-04-12T02:40:38.275Z,0
2023-04-12T02:41:39.172Z,0
2023-04-12T02:42:41.028Z,0
2023-04-12T02:43:39.925Z,0
2023-04-12T02:44:40.845Z,0
2023-04-12T02:45:41.356Z,0
2023-04-12T02:46:42.428Z,0
2023-04-12T02:47:42.777Z,0
2023-04-12T02:48:42.690Z,0
2023-04-12T02:49:45.318Z,0
2023-04-12T02:50:44.101Z,0
2023-04-12T02:51:44.610Z,0
2023-04-12T02:52:45.453Z,0
2023-04-12T02:53:45.965Z,0
2023-04-12T02:54:46.688Z,0
2023-04-12T02:55:47.383Z,0
2023-04-12T02:56:47.731Z,0
2023-04-12T02:57:48.244Z,0
2023-04-12T02:58:48.963Z,0
2023-04-12T02:59:49.875Z,0
2023-04-12T03:00:50.595Z,0
2023-04-12T03:01:51.667Z,0
2023-04-12T03:02:52.914Z,0
2023-04-12T03:03:53.281Z,0
2023-04-12T03:04:52.989Z,0
2023-04-12T03:05:53.669Z,0
2023-04-12T03:06:54.174Z,0
2023-04-12T03:07:54.885Z,0
2023-04-12T03:08:55.388Z,0
2023-04-12T03:09:55.503Z,0
2023-04-12T03:10:56.595Z,0
2023-04-12T03:11:57.315Z,0
2023-04-12T03:12:57.959Z,0
2023-04-12T03:13:58.073Z,0
2023-04-12T03:14:57.888Z,0
2023-04-12T03:15:58.950Z,0
2023-04-12T03:16:59.749Z,0
2023-04-12T03:18:00.780Z,0
2023-04-12T03:19:01.604Z,0
2023-04-12T03:20:01.837Z,0
2023-04-12T03:21:04.408Z,0
2023-04-12T03:22:03.270Z,0
2023-04-12T03:23:03.315Z,0
2023-04-12T03:24:03.983Z,0
2023-04-12T03:25:05.092Z,0
2023-04-12T03:26:04.973Z,0
2023-04-12T03:27:05.693Z,0
2023-04-12T03:28:06.409Z,0
2023-04-12T03:29:07.780Z,0
2023-04-12T03:30:07.007Z,0
2023-04-12T03:31:07.797Z,0
2023-04-12T03:32:08.785Z,0
2023-04-12T03:33:09.324Z,0
2023-04-12T03:34:10.754Z,0
2023-04-12T03:35:10.655Z,0
2023-04-12T03:36:11.472Z,0
2023-04-12T03:37:12.462Z,0
2023-04-12T03:38:13.213Z,0
2023-04-12T03:39:13.753Z,0
2023-04-12T03:40:14.739Z,0
2023-04-12T03:41:15.483Z,0
2023-04-12T03:42:33.362Z,0
2023-04-12T03:44:21.711Z,0
2023-04-12T03:45:22.202Z,0
2023-04-12T03:46:22.834Z,0
2023-04-12T03:47:23.795Z,0
2023-04-12T03:48:23.905Z,0
2023-04-12T03:49:24.503Z,0
2023-04-12T03:50:28.357Z,0
2023-04-12T03:51:25.755Z,0
2023-04-12T03:52:26.477Z,0
2023-04-12T03:53:26.947Z,0
2023-04-12T03:54:27.727Z,0
2023-04-12T03:55:27.874Z,0
2023-04-12T03:56:28.545Z,0
2023-04-12T03:57:29.217Z,0
2023-04-12T03:58:29.975Z,0
2023-04-12T03:59:30.683Z,0
2023-04-12T04:00:31.193Z,0
2023-04-12T04:01:31.274Z,0
2023-04-12T04:02:34.031Z,0
2023-04-12T04:03:34.378Z,0
2023-04-12T04:04:35.459Z,0
2023-04-12T04:05:34.551Z,0
2023-04-12T04:06:34.634Z,0
2023-04-12T04:07:36.346Z,0
2023-04-12T04:08:37.027Z,0
2023-04-12T04:09:38.141Z,0
2023-04-12T04:10:38.656Z,0
2023-04-12T04:11:39.328Z,0
2023-04-12T04:12:39.809Z,0
2023-04-12T04:13:40.284Z,0
2023-04-12T04:14:40.965Z,0
2023-04-12T04:15:41.455Z,0
2023-04-12T04:16:42.250Z,0
2023-04-12T04:17:43.244Z,0
2023-04-12T04:18:42.983Z,0
2023-04-12T04:19:43.919Z,0
2023-04-12T04:20:44.243Z,0
2023-04-12T04:21:45.134Z,0
2023-04-12T04:22:45.889Z,0
2023-04-12T04:23:46.282Z,0
2023-04-12T04:24:47.196Z,0
2023-04-12T04:25:47.960Z,0
2023-04-12T04:26:48.868Z,0
2023-04-12T04:27:49.663Z,0
2023-04-12T04:28:51.646Z,0
2023-04-12T04:29:51.765Z,0
2023-04-12T04:30:51.454Z,0
2023-04-12T04:31:52.298Z,0
2023-04-12T04:32:53.288Z,0
2023-04-12T04:33:52.989Z,0
2023-04-12T04:34:53.497Z,0
2023-04-12T04:35:54.789Z,0
2023-04-12T04:36:54.653Z,0
2023-04-12T04:37:55.156Z,0
2023-04-12T04:38:55.845Z,0
2023-04-12T04:39:56.925Z,0
2023-04-12T04:40:57.448Z,0
2023-04-12T04:41:58.258Z,0
2023-04-12T04:42:58.964Z,0
2023-04-12T04:43:59.629Z,0
2023-04-12T04:45:00.177Z,0
2023-04-12T04:46:01.001Z,0
2023-04-12T04:47:01.768Z,0
2023-04-12T04:48:03.306Z,0
2023-04-12T04:49:02.821Z,0
2023-04-12T04:50:03.807Z,0
2023-04-12T04:51:04.695Z,0
2023-04-12T04:52:05.051Z,0
2023-04-12T04:53:05.977Z,0
2023-04-12T04:54:06.541Z,0
2023-04-12T04:55:11.339Z,0
2023-04-12T04:56:06.875Z,0
2023-04-12T04:57:07.559Z,0
2023-04-12T04:58:08.054Z,0
2023-04-12T04:59:11.650Z,0
2023-04-12T05:00:09.123Z,0
2023-04-12T05:01:09.381Z,0
2023-04-12T05:02:09.726Z,0
2023-04-12T05:03:10.550Z,0
2023-04-12T05:04:12.516Z,5.63
2023-04-12T05:05:12.122Z,5.63
2023-04-12T05:06:13.014Z,5.63
2023-04-12T05:07:13.311Z,5.63
2023-04-12T05:08:14.054Z,5.63
2023-04-12T05:09:15.634Z,5.63
2023-04-12T05:10:15.556Z,5.63
2023-04-12T05:11:16.394Z,5.63
2023-04-12T05:12:17.484Z,5.63
2023-04-12T05:13:17.993Z,5.63
2023-04-12T05:14:23.380Z,5.63
2023-04-12T05:15:22.903Z,5.63
2023-04-12T05:16:19.468Z,5.63
2023-04-12T05:17:20.163Z,5.63
2023-04-12T05:18:21.010Z,5.63
2023-04-12T05:19:21.944Z,5.63
2023-04-12T05:20:22.988Z,5.63
2023-04-12T05:21:24.356Z,5.63
2023-04-12T05:22:23.582Z,5.63
2023-04-12T05:23:24.354Z,5.63
2023-04-12T05:24:24.729Z,5.63
2023-04-12T05:25:25.652Z,5.63
2023-04-12T05:26:26.201Z,5.63
2023-04-12T05:27:26.950Z,11.25
2023-04-12T05:28:28.074Z,11.25
2023-04-12T05:29:27.880Z,11.25
2023-04-12T05:30:28.598Z,11.25
2023-04-12T05:31:29.737Z,11.25
2023-04-12T05:32:29.376Z,11.25
2023-04-12T05:33:32.162Z,11.25
2023-04-12T05:35:30.773Z,11.25
2023-04-12T05:36:31.673Z,11.25
2023-04-12T05:37:32.182Z,11.25
2023-04-12T05:38:33.165Z,16.88
2023-04-12T05:39:37.213Z,16.88
2023-04-12T05:40:34.933Z,16.88
2023-04-12T05:41:35.531Z,16.88
2023-04-12T05:42:36.032Z,16.88
2023-04-12T05:43:36.563Z,16.88
2023-04-12T05:44:37.056Z,16.88
2023-04-12T05:45:37.633Z,16.88
2023-04-12T05:46:38.420Z,16.88
2023-04-12T05:47:39.380Z,16.88
2023-04-12T05:48:39.896Z,16.88
2023-04-12T05:49:40.165Z,16.88
2023-04-12T05:50:41.325Z,16.88
2023-04-12T05:51:55.594Z,16.88
2023-04-12T05:53:42.877Z,16.88
2023-04-12T05:54:43.667Z,16.88
2023-04-12T05:55:48.439Z,16.88
2023-04-12T05:56:45.198Z,16.88
2023-04-12T05:57:46.291Z,16.88
2023-04-12T05:58:46.800Z,22.5
2023-04-12T05:59:47.552Z,22.5
2023-04-12T06:00:48.253Z,22.5
2023-04-12T06:01:48.939Z,22.5
2023-04-12T06:02:50.445Z,22.5
2023-04-12T06:03:51.469Z,28.13
2023-04-12T06:05:06.267Z,28.13
2023-04-12T06:06:51.734Z,28.13
2023-04-12T06:07:52.272Z,28.13
2023-04-12T06:08:53.134Z,28.13
2023-04-12T06:09:53.662Z,28.13
2023-04-12T06:10:54.180Z,28.13
2023-04-12T06:11:55.047Z,28.13
2023-04-12T06:12:55.997Z,28.13
2023-04-12T06:13:56.527Z,28.13
2023-04-12T06:14:58.184Z,28.13
2023-04-12T06:15:57.980Z,28.13
2023-04-12T06:16:58.356Z,28.13
2023-04-12T06:17:59.473Z,28.13
2023-04-12T06:18:59.390Z,28.13
2023-04-12T06:20:00.304Z,28.13
2023-04-12T06:21:01.029Z,28.13
2023-04-12T06:22:01.528Z,28.13
2023-04-12T06:23:02.306Z,28.13
2023-04-12T06:24:03.042Z,28.13
2023-04-12T06:25:03.641Z,28.13
2023-04-12T06:26:04.256Z,28.13
2023-04-12T06:27:05.184Z,28.13
2023-04-12T06:28:05.876Z,28.13
2023-04-12T06:29:07.571Z,28.13
2023-04-12T06:30:07.493Z,28.13
2023-04-12T06:31:08.529Z,28.13
2023-04-12T06:32:08.688Z,28.13
2023-04-12T06:33:09.545Z,28.13
2023-04-12T06:34:10.294Z,28.13
2023-04-12T06:35:10.303Z,28.13
2023-04-12T06:36:11.379Z,28.13
2023-04-12T06:37:10.895Z,28.13
2023-04-12T06:38:12.068Z,28.13
2023-04-12T06:39:13.182Z,28.13
2023-04-12T06:40:12.503Z,28.13
2023-04-12T06:41:13.240Z,28.13
2023-04-12T06:42:14.676Z,28.13
2023-04-12T06:43:14.690Z,28.13
2023-04-12T06:44:15.573Z,33.75
2023-04-12T06:45:16.103Z,33.75
2023-04-12T06:46:16.843Z,33.75
2023-04-12T06:47:18.297Z,33.75
2023-04-12T06:48:18.146Z,39.38
2023-04-12T06:49:19.057Z,39.38
2023-04-12T06:50:19.564Z,39.38
2023-04-12T06:51:20.313Z,39.38
2023-04-12T06:52:21.029Z,39.38
2023-04-12T06:53:22.164Z,39.38
2023-04-12T06:54:21.654Z,39.38
2023-04-12T06:55:23.254Z,39.38
2023-04-12T06:56:24.489Z,39.38
2023-04-12T06:57:24.215Z,39.38
2023-04-12T06:58:25.118Z,39.38
2023-04-12T06:59:25.628Z,39.38
2023-04-12T07:00:26.548Z,39.38
2023-04-12T07:01:26.868Z,39.38
2023-04-12T07:02:26.950Z,39.38
2023-04-12T07:03:27.893Z,39.38
2023-04-12T07:04:29.231Z,45
2023-04-12T07:05:28.912Z,45
2023-04-12T07:06:40.604Z,45
2023-04-12T07:07:30.072Z,45
2023-04-12T07:08:31.442Z,50.63
2023-04-12T07:09:31.241Z,45
2023-04-12T07:10:31.609Z,45
2023-04-12T07:11:38.291Z,45
2023-04-12T07:12:32.834Z,45
2023-04-12T07:13:33.742Z,45
2023-04-12T07:14:34.221Z,45
2023-04-12T07:15:35.868Z,45
2023-04-12T07:16:36.791Z,50.63
2023-04-12T07:17:36.865Z,50.63
2023-04-12T07:18:38.003Z,50.63
2023-04-12T07:19:38.507Z,50.63
2023-04-12T07:20:38.998Z,56.25
2023-04-12T07:21:39.548Z,56.25
2023-04-12T07:22:40.463Z,56.25
2023-04-12T07:23:41.133Z,50.63
2023-04-12T07:24:42.096Z,50.63
2023-04-12T07:25:42.501Z,50.63
2023-04-12T07:26:43.457Z,50.63
2023-04-12T07:27:44.339Z,56.25
2023-04-12T07:28:45.250Z,56.25
2023-04-12T07:29:45.955Z,56.25
2023-04-12T07:30:47.007Z,56.25
2023-04-12T07:31:47.682Z,56.25
2023-04-12T07:32:48.885Z,56.25
2023-04-12T07:33:54.518Z,56.25
2023-04-12T07:34:50.237Z,56.25
2023-04-12T07:35:51.662Z,56.25
2023-04-12T07:36:52.448Z,56.25
2023-04-12T07:37:53.166Z,56.25
2023-04-12T07:38:53.875Z,56.25
2023-04-12T07:39:55.071Z,56.25
2023-04-12T07:41:00.660Z,56.25
2023-04-12T07:41:56.589Z,56.25
2023-04-12T07:42:57.595Z,50.63
2023-04-12T07:43:58.517Z,56.25
2023-04-12T07:44:59.451Z,56.25
2023-04-12T07:46:01.016Z,50.63
2023-04-12T07:47:00.509Z,50.63
2023-04-12T07:48:01.861Z,50.63
2023-04-12T07:49:02.349Z,56.25
2023-04-12T07:50:02.244Z,56.25
2023-04-12T07:51:03.161Z,56.25
2023-04-12T07:52:03.883Z,56.25
2023-04-12T07:53:04.361Z,56.25
2023-04-12T07:54:04.936Z,56.25
2023-04-12T07:55:05.902Z,56.25
2023-04-12T07:56:06.353Z,56.25
2023-04-12T07:57:07.408Z,61.88
2023-04-12T07:58:08.371Z,61.88
2023-04-12T07:59:09.380Z,61.88
2023-04-12T08:00:10.142Z,61.88
2023-04-12T08:01:12.531Z,56.25
2023-04-12T08:02:12.323Z,56.25
2023-04-12T08:03:12.974Z,61.88
2023-04-12T08:04:15.018Z,61.88
2023-04-12T08:05:13.605Z,61.88
2023-04-12T08:06:14.983Z,61.88
2023-04-12T08:07:15.982Z,56.25
2023-04-12T08:08:16.107Z,56.25
2023-04-12T08:09:16.008Z,56.25
2023-04-12T08:10:16.922Z,56.25
2023-04-12T08:11:18.084Z,50.63
2023-04-12T08:12:18.112Z,50.63
2023-04-12T08:13:19.101Z,50.63
2023-04-12T08:14:18.839Z,50.63
2023-04-12T08:15:19.550Z,56.25
2023-04-12T08:16:20.302Z,56.25
2023-04-12T08:17:21.105Z,61.88
2023-04-12T08:18:22.371Z,61.88
2023-04-12T08:19:22.260Z,67.5
2023-04-12T08:20:23.420Z,67.5
2023-04-12T08:21:23.908Z,67.5
2023-04-12T08:22:24.670Z,67.5
2023-04-12T08:23:25.417Z,67.5
2023-04-12T08:24:26.129Z,67.5
2023-04-12T08:25:26.912Z,73.13
2023-04-12T08:26:27.541Z,73.13
2023-04-12T08:27:28.716Z,73.13
2023-04-12T08:28:28.462Z,78.75
2023-04-12T08:29:29.635Z,78.75
2023-04-12T08:30:29.764Z,84.38
2023-04-12T08:31:30.255Z,84.38
2023-04-12T08:32:29.952Z,90
2023-04-12T08:33:31.122Z,95.63
2023-04-12T08:34:30.821Z,101.25
2023-04-12T08:35:31.939Z,95.63
2023-04-12T08:36:31.396Z,90
2023-04-12T08:37:31.945Z,84.38
2023-04-12T08:38:56.589Z,95.63
2023-04-12T08:40:33.604Z,112.5
2023-04-12T08:41:35.056Z,118.13
2023-04-12T08:42:34.459Z,123.75
2023-04-12T08:43:35.023Z,129.38
2023-04-12T08:44:35.956Z,118.13
2023-04-12T08:45:36.869Z,112.5
2023-04-12T08:46:38.213Z,101.25
2023-04-12T08:47:38.111Z,90
2023-04-12T08:48:38.928Z,84.38
2023-04-12T08:49:39.830Z,78.75
2023-04-12T08:50:40.758Z,78.75
2023-04-12T08:51:41.673Z,78.75
2023-04-12T08:52:42.449Z,78.75
2023-04-12T08:53:43.582Z,78.75
2023-04-12T08:54:43.279Z,73.13
2023-04-12T08:55:44.290Z,73.13
2023-04-12T08:56:44.752Z,78.75
2023-04-12T08:57:48.048Z,90
2023-04-12T08:58:45.788Z,106.88
2023-04-12T08:59:46.537Z,129.38
2023-04-12T09:00:47.053Z,157.5
2023-04-12T09:01:47.970Z,174.38
2023-04-12T09:02:49.918Z,163.13
2023-04-12T09:03:51.491Z,146.25
2023-04-12T09:04:49.523Z,140.63
2023-04-12T09:05:49.320Z,157.5
2023-04-12T09:06:50.039Z,191.25
2023-04-12T09:07:50.823Z,230.63
2023-04-12T09:08:51.609Z,286.88
2023-04-12T09:09:52.548Z,258.75
2023-04-12T09:10:53.167Z,225
2023-04-12T09:11:53.896Z,247.5
2023-04-12T09:12:56.400Z,213.75
2023-04-12T09:13:54.732Z,236.25
2023-04-12T09:14:55.881Z,270
2023-04-12T09:15:56.413Z,281.25
2023-04-12T09:16:57.261Z,337.5
2023-04-12T09:17:57.588Z,326.25
2023-04-12T09:18:57.952Z,461.25
2023-04-12T09:19:57.860Z,472.5
2023-04-12T09:20:58.392Z,416.25
2023-04-12T09:21:59.307Z,416.25
2023-04-12T09:22:59.895Z,421.88
2023-04-12T09:24:00.922Z,365.63
2023-04-12T09:25:00.874Z,416.25
2023-04-12T09:26:01.881Z,376.88
2023-04-12T09:27:02.660Z,388.13
2023-04-12T09:28:03.877Z,388.13
2023-04-12T09:29:03.691Z,421.88
2023-04-12T09:30:05.584Z,455.63
2023-04-12T09:31:05.946Z,388.13
2023-04-12T09:32:06.526Z,326.25
2023-04-12T09:33:07.226Z,315
2023-04-12T09:34:08.196Z,343.13
2023-04-12T09:35:08.384Z,382.5
2023-04-12T09:36:09.080Z,388.13
2023-04-12T09:37:09.840Z,393.75
2023-04-12T09:38:10.867Z,292.5
2023-04-12T09:39:11.693Z,258.75
2023-04-12T09:40:12.703Z,247.5
2023-04-12T09:41:12.818Z,275.63
2023-04-12T09:42:32.942Z,208.13
2023-04-12T09:43:13.611Z,219.38
2023-04-12T09:44:14.873Z,270
2023-04-12T09:45:14.650Z,219.38
2023-04-12T09:46:15.694Z,219.38
2023-04-12T09:47:16.073Z,208.13
2023-04-12T09:48:16.239Z,196.88
2023-04-12T09:49:15.844Z,185.63
2023-04-12T09:50:16.851Z,180
2023-04-12T09:51:18.092Z,168.75
2023-04-12T09:52:18.252Z,163.13
2023-04-12T09:53:19.501Z,163.13
2023-04-12T09:54:19.248Z,168.75
2023-04-12T09:55:20.213Z,168.75
2023-04-12T09:56:20.999Z,157.5
2023-04-12T09:57:21.842Z,151.88
2023-04-12T09:58:22.170Z,151.88
2023-04-12T09:59:21.553Z,146.25
2023-04-12T10:00:23.087Z,135
2023-04-12T10:01:23.336Z,140.63
2023-04-12T10:02:24.523Z,168.75
2023-04-12T10:03:24.971Z,213.75
2023-04-12T10:04:25.325Z,230.63
2023-04-12T10:05:25.584Z,337.5
2023-04-12T10:06:25.166Z,286.88
2023-04-12T10:07:26.317Z,292.5
2023-04-12T10:08:26.298Z,303.75
2023-04-12T10:09:26.883Z,315
2023-04-12T10:10:28.487Z,320.63
2023-04-12T10:11:28.756Z,348.75
2023-04-12T10:12:28.275Z,343.13
2023-04-12T10:13:29.087Z,343.13
2023-04-12T10:14:33.775Z,348.75
2023-04-12T10:15:30.772Z,337.5
2023-04-12T10:16:31.905Z,348.75
2023-04-12T10:17:32.217Z,331.88
2023-04-12T10:18:32.468Z,326.25
2023-04-12T10:19:32.639Z,331.88
2023-04-12T10:20:35.105Z,320.63
2023-04-12T10:21:32.674Z,320.63
2023-04-12T10:22:33.452Z,292.5
2023-04-12T10:23:34.223Z,286.88
2023-04-12T10:24:35.003Z,281.25
2023-04-12T10:25:36.669Z,286.88
2023-04-12T10:26:36.811Z,275.63
2023-04-12T10:27:36.325Z,270
2023-04-12T10:28:37.545Z,258.75
2023-04-12T10:29:38.605Z,253.13
2023-04-12T10:30:38.341Z,247.5
2023-04-12T10:31:39.627Z,247.5
2023-04-12T10:32:40.761Z,236.25
2023-04-12T10:33:40.259Z,225
2023-04-12T10:34:39.843Z,202.5
2023-04-12T10:35:40.332Z,191.25
2023-04-12T10:36:41.365Z,163.13
2023-04-12T10:37:42.049Z,157.5
2023-04-12T10:38:46.886Z,157.5
2023-04-12T10:39:43.897Z,157.5
2023-04-12T10:40:44.792Z,168.75
2023-04-12T10:41:45.868Z,168.75
2023-04-12T10:42:46.827Z,163.13
2023-04-12T10:43:47.203Z,168.75
2023-04-12T10:44:48.379Z,168.75
2023-04-12T10:45:48.408Z,168.75
2023-04-12T10:46:50.531Z,168.75
2023-04-12T10:47:49.535Z,163.13
2023-04-12T10:48:50.671Z,163.13
2023-04-12T10:49:51.434Z,168.75
2023-04-12T10:50:52.574Z,163.13
2023-04-12T10:51:53.321Z,157.5
2023-04-12T10:52:54.097Z,146.25
2023-04-12T10:53:55.297Z,140.63
2023-04-12T10:54:55.293Z,135
2023-04-12T10:55:56.322Z,135
2023-04-12T10:56:56.853Z,135
2023-04-12T10:57:57.372Z,135
2023-04-12T10:58:58.748Z,129.38
2023-04-12T11:00:03.970Z,123.75
2023-04-12T11:00:59.877Z,118.13
2023-04-12T11:02:02.005Z,118.13
2023-04-12T11:03:01.788Z,118.13
2023-04-12T11:04:02.847Z,129.38
2023-04-12T11:05:02.683Z,129.38
2023-04-12T11:06:13.039Z,129.38
2023-04-12T11:07:05.910Z,140.63
2023-04-12T11:08:03.791Z,151.88
2023-04-12T11:09:04.748Z,163.13
2023-04-12T11:10:05.148Z,185.63
2023-04-12T11:11:06.174Z,191.25
2023-04-12T11:12:09.536Z,191.25
2023-04-12T11:13:07.412Z,180
2023-04-12T11:14:08.447Z,168.75
2023-04-12T11:15:08.734Z,163.13
2023-04-12T11:16:08.876Z,157.5
2023-04-12T11:17:09.013Z,163.13
2023-04-12T11:18:09.858Z,163.13
2023-04-12T11:19:10.754Z,157.5
2023-04-12T11:20:11.824Z,157.5
2023-04-12T11:21:12.706Z,151.88
2023-04-12T11:22:13.666Z,151.88
2023-04-12T11:23:16.752Z,151.88
2023-04-12T11:24:14.833Z,151.88
2023-04-12T11:25:14.674Z,163.13
2023-04-12T11:26:15.341Z,185.63
2023-04-12T11:27:16.130Z,185.63
2023-04-12T11:28:41.093Z,202.5
2023-04-12T11:30:17.776Z,208.13
2023-04-12T11:31:17.541Z,225
2023-04-12T11:32:18.220Z,230.63
2023-04-12T11:33:19.554Z,236.25
2023-04-12T11:34:21.504Z,236.25
2023-04-12T11:35:20.497Z,236.25
2023-04-12T11:36:21.301Z,219.38
2023-04-12T11:37:21.817Z,202.5
2023-04-12T11:38:22.165Z,196.88
2023-04-12T11:39:23.436Z,196.88
2023-04-12T11:40:23.375Z,185.63
2023-04-12T11:41:24.293Z,191.25
2023-04-12T11:42:24.938Z,196.88
2023-04-12T11:43:25.699Z,208.13
2023-04-12T11:44:26.633Z,213.75
2023-04-12T11:45:33.662Z,230.63
2023-04-12T11:46:27.521Z,230.63
2023-04-12T11:47:28.431Z,303.75
2023-04-12T11:48:29.438Z,540
2023-04-12T11:49:30.205Z,500.63
2023-04-12T11:50:30.940Z,320.63
2023-04-12T11:51:32.569Z,303.75
2023-04-12T11:52:32.521Z,540
2023-04-12T11:53:33.294Z,455.63
2023-04-12T11:54:33.848Z,427.5
2023-04-12T11:55:34.169Z,303.75
2023-04-12T11:56:34.960Z,354.38
2023-04-12T11:57:36.163Z,393.75
2023-04-12T11:58:36.362Z,405
2023-04-12T11:59:37.311Z,303.75
2023-04-12T12:00:38.099Z,281.25
2023-04-12T12:01:38.881Z,247.5
2023-04-12T12:03:09.938Z,253.13
2023-04-12T12:03:41.688Z,241.88
2023-04-12T12:04:42.959Z,213.75
2023-04-12T12:05:43.704Z,202.5
2023-04-12T12:06:45.125Z,185.63
2023-04-12T12:07:43.837Z,168.75
2023-04-12T12:08:43.682Z,157.5
2023-04-12T12:09:44.817Z,151.88
2023-04-12T12:11:19.028Z,140.63
2023-04-12T12:12:47.057Z,123.75
2023-04-12T12:13:48.484Z,118.13
2023-04-12T12:14:48.664Z,129.38
2023-04-12T12:15:49.706Z,129.38
2023-04-12T12:16:49.831Z,118.13
2023-04-12T12:17:49.965Z,112.5
2023-04-12T12:18:52.678Z,95.63
2023-04-12T12:19:50.891Z,95.63
2023-04-12T12:20:51.480Z,84.38
2023-04-12T12:21:52.199Z,78.75
2023-04-12T12:22:53.314Z,78.75
2023-04-12T12:23:54.355Z,78.75
2023-04-12T12:24:58.318Z,78.75
2023-04-12T12:26:03.022Z,90
2023-04-12T12:26:55.978Z,106.88
2023-04-12T12:27:57.411Z,112.5
2023-04-12T12:28:57.490Z,123.75
2023-04-12T12:29:58.431Z,123.75
2023-04-12T12:30:58.182Z,118.13
2023-04-12T12:32:00.339Z,118.13
2023-04-12T12:32:59.728Z,118.13
2023-04-12T12:34:20.704Z,112.5
2023-04-12T12:36:01.222Z,95.63
2023-04-12T12:37:02.121Z,78.75
2023-04-12T12:38:03.044Z,73.13
2023-04-12T12:39:03.478Z,78.75
2023-04-12T12:40:04.060Z,78.75
2023-04-12T12:41:05.157Z,78.75
2023-04-12T12:42:06.090Z,84.38
2023-04-12T12:43:06.746Z,84.38
2023-04-12T12:44:08.556Z,90
2023-04-12T12:45:08.433Z,95.63
2023-04-12T12:46:09.257Z,95.63
2023-04-12T12:47:25.751Z,101.25
2023-04-12T12:48:10.696Z,101.25
2023-04-12T12:50:11.216Z,95.63
2023-04-12T12:51:11.714Z,90
2023-04-12T12:52:12.112Z,90
2023-04-12T12:53:13.400Z,95.63
2023-04-12T12:54:17.892Z,101.25
2023-04-12T12:55:15.068Z,101.25
2023-04-12T12:56:14.779Z,101.25
2023-04-12T12:57:15.406Z,95.63
2023-04-12T12:58:23.959Z,95.63
2023-04-12T12:59:16.209Z,95.63
2023-04-12T13:00:17.402Z,90
2023-04-12T13:01:16.967Z,95.63
2023-04-12T13:02:19.184Z,95.63
2023-04-12T13:03:19.826Z,95.63
2023-04-12T13:04:19.913Z,101.25
2023-04-12T13:05:22.934Z,101.25
2023-04-12T13:06:20.946Z,95.63
2023-04-12T13:07:21.674Z,84.38
2023-04-12T13:08:22.596Z,90
2023-04-12T13:09:22.973Z,84.38
2023-04-12T13:10:23.857Z,78.75
2023-04-12T13:11:23.834Z,78.75
2023-04-12T13:12:24.946Z,78.75
2023-04-12T13:13:25.908Z,73.13
2023-04-12T13:14:26.408Z,73.13
2023-04-12T13:15:38.883Z,67.5
2023-04-12T13:16:27.932Z,67.5
2023-04-12T13:17:28.492Z,73.13
2023-04-12T13:18:29.605Z,73.13
2023-04-12T13:19:29.870Z,78.75
2023-04-12T13:20:31.039Z,84.38
2023-04-12T13:21:30.800Z,95.63
2023-04-12T13:22:31.508Z,95.63
2023-04-12T13:23:32.059Z,90
2023-04-12T13:24:33.070Z,84.38
2023-04-12T13:25:33.810Z,84.38
2023-04-12T13:26:34.533Z,78.75
2023-04-12T13:27:35.234Z,78.75
2023-04-12T13:28:35.841Z,73.13
2023-04-12T13:29:36.284Z,73.13
2023-04-12T13:30:36.789Z,73.13
2023-04-12T13:31:37.820Z,73.13
2023-04-12T13:32:37.832Z,73.13
2023-04-12T13:33:39.200Z,67.5
2023-04-12T13:34:38.922Z,61.88
2023-04-12T13:35:39.643Z,61.88
2023-04-12T13:36:40.601Z,73.13
2023-04-12T13:37:40.918Z,95.63
2023-04-12T13:38:42.039Z,118.13
2023-04-12T13:39:44.164Z,118.13
2023-04-12T13:40:43.296Z,95.63
2023-04-12T13:41:43.517Z,78.75
2023-04-12T13:42:43.620Z,78.75
2023-04-12T13:43:43.556Z,73.13
2023-04-12T13:44:44.269Z,67.5
2023-04-12T13:45:45.713Z,50.63
2023-04-12T13:46:46.035Z,45
2023-04-12T13:47:45.979Z,39.38